Time;durP1;ratioP1;P1;durP2;ratioP2;P2;SDS_P1;SDS_P2;PMS_P1;PMS_P2;Temp;Humidity;BMP_temperature;BMP_pressure;BME280_temperature;BME280_humidity;BME280_pressure;Samples;Min_cycle;Max_cycle;Signal;HPM_P1;HPM_P2
2021/01/16 00:00:30;;;;;;;14.73;11.10;;;;;;;3.70;73.03;97265.78;5010970;28;20187;-56
2021/01/16 00:02:55;;;;;;;18.00;12.10;;;;;;;3.58;73.90;97273.09;4995280;28;20511;-56
2021/01/16 00:05:26;;;;;;;14.57;11.27;;;;;;;3.59;74.26;97269.50;4995477;28;20858;-56
2021/01/16 00:08:04;;;;;;;15.67;11.33;;;;;;;3.56;74.44;97256.84;4994498;28;20606;-59
2021/01/16 00:10:41;;;;;;;16.80;11.03;;;;;;;3.61;73.87;97262.38;4995675;28;20416;-59
2021/01/16 00:13:11;;;;;;;14.37;11.17;;;;;;;3.67;73.67;97260.94;4998643;28;20473;-56
2021/01/16 00:15:36;;;;;;;18.30;12.50;;;;;;;3.71;73.71;97259.63;5007645;28;20428;-59
2021/01/16 00:18:05;;;;;;;15.10;12.17;;;;;;;3.63;73.25;97257.84;5013137;28;20469;-59
2021/01/16 00:20:31;;;;;;;15.90;12.33;;;;;;;3.53;73.16;97257.19;5015286;28;20208;-56
2021/01/16 00:22:57;;;;;;;14.10;11.70;;;;;;;3.49;73.67;97258.47;5014680;28;20544;-56
2021/01/16 00:25:23;;;;;;;17.63;12.27;;;;;;;3.53;74.10;97257.19;5015180;28;20882;-56
2021/01/16 00:27:49;;;;;;;17.43;11.97;;;;;;;3.58;73.78;97257.50;5014714;28;20448;-55
2021/01/16 00:30:16;;;;;;;15.07;11.43;;;;;;;3.50;74.07;97254.88;5015063;28;20189;-59
2021/01/16 00:32:42;;;;;;;18.77;12.57;;;;;;;3.63;73.25;97251.81;5013646;28;20270;-59
2021/01/16 00:35:09;;;;;;;15.90;12.83;;;;;;;3.43;73.98;97259.09;5010268;28;20549;-59
2021/01/16 00:37:36;;;;;;;15.90;12.50;;;;;;;3.33;74.89;97255.00;4995183;28;20573;-59
2021/01/16 00:40:06;;;;;;;17.10;12.60;;;;;;;3.37;74.21;97248.53;4995260;28;20804;-56
2021/01/16 00:42:31;;;;;;;15.10;11.60;;;;;;;3.29;74.62;97248.50;5007255;28;20514;-59
2021/01/16 00:44:56;;;;;;;14.63;11.63;;;;;;;3.35;74.63;97246.09;5014502;28;21075;-56
2021/01/16 00:47:22;;;;;;;18.80;14.43;;;;;;;3.41;74.75;97249.81;5014721;28;20649;-59
2021/01/16 00:49:47;;;;;;;16.97;12.00;;;;;;;3.39;74.54;97247.38;5013947;28;20184;-56
2021/01/16 00:52:13;;;;;;;18.90;12.60;;;;;;;3.44;74.87;97247.75;5014531;28;20262;-59
2021/01/16 00:54:38;;;;;;;18.40;13.00;;;;;;;3.43;74.11;97242.69;5014057;28;20214;-59
2021/01/16 00:57:04;;;;;;;17.93;13.10;;;;;;;3.40;74.39;97249.03;5014507;28;20192;-59
2021/01/16 00:59:29;;;;;;;16.83;13.03;;;;;;;3.40;74.25;97251.63;5014312;28;20650;-59
2021/01/16 01:01:54;;;;;;;19.73;13.13;;;;;;;3.29;74.97;97246.72;5013850;28;20190;-56
2021/01/16 01:04:20;;;;;;;16.80;12.33;;;;;;;3.22;74.89;97248.34;5012378;28;20237;-56
2021/01/16 01:06:45;;;;;;;18.07;12.13;;;;;;;3.38;74.73;97250.97;5003302;28;20660;-59
2021/01/16 01:09:10;;;;;;;16.27;12.57;;;;;;;3.31;74.29;97250.00;5014381;28;20175;-59
2021/01/16 01:11:36;;;;;;;18.67;13.60;;;;;;;3.33;74.94;97260.22;5014096;28;20185;-57
2021/01/16 01:14:01;;;;;;;18.50;13.00;;;;;;;3.31;74.43;97255.19;5010317;28;20211;-59
2021/01/16 01:16:26;;;;;;;17.60;13.20;;;;;;;3.36;74.80;97252.91;5013434;28;20184;-56
2021/01/16 01:18:53;;;;;;;19.50;13.67;;;;;;;3.35;74.11;97258.28;5014036;28;20283;-59
2021/01/16 01:21:21;;;;;;;19.70;13.53;;;;;;;3.34;74.08;97262.63;5014148;28;20168;-56
2021/01/16 01:23:46;;;;;;;20.50;14.80;;;;;;;3.38;74.14;97252.75;5013569;28;20438;-59
2021/01/16 01:26:11;;;;;;;19.73;14.33;;;;;;;3.33;74.49;97258.44;5012778;28;20450;-57
2021/01/16 01:28:37;;;;;;;20.27;14.73;;;;;;;3.43;74.27;97258.28;5013965;28;20218;-59
2021/01/16 01:31:02;;;;;;;20.57;14.03;;;;;;;3.44;74.55;97258.13;5013923;28;20652;-56
2021/01/16 01:33:28;;;;;;;19.70;13.87;;;;;;;3.57;73.89;97255.06;5012853;28;20192;-58
2021/01/16 01:35:53;;;;;;;18.20;13.60;;;;;;;3.58;73.88;97252.31;4994550;28;20175;-56
2021/01/16 01:38:19;;;;;;;20.23;13.57;;;;;;;3.62;73.57;97248.44;4994280;28;20663;-59
2021/01/16 01:40:44;;;;;;;18.50;13.63;;;;;;;3.62;73.14;97253.63;4999918;28;20180;-59
2021/01/16 01:43:12;;;;;;;18.63;13.60;;;;;;;3.67;73.06;97258.31;4996077;28;20268;-56
2021/01/16 01:45:37;;;;;;;19.33;14.47;;;;;;;3.65;72.96;97257.66;5012015;28;20570;-56
2021/01/16 01:48:03;;;;;;;17.10;12.93;;;;;;;3.61;73.57;97254.59;5014062;28;20440;-59
2021/01/16 01:50:29;;;;;;;18.23;13.03;;;;;;;3.65;73.26;97257.66;5013805;28;20198;-59
2021/01/16 01:52:56;;;;;;;20.57;14.10;;;;;;;3.58;72.90;97254.09;5013525;28;20633;-59
2021/01/16 01:55:22;;;;;;;23.13;14.77;;;;;;;3.45;72.92;97262.34;5013550;28;20193;-57
2021/01/16 01:57:56;;;;;;;20.63;14.43;;;;;;;3.23;73.86;97267.31;5012731;28;20455;-59
2021/01/16 02:00:22;;;;;;;18.03;13.20;;;;;;;3.10;74.24;97258.19;4994185;28;20416;-59
2021/01/16 02:02:49;;;;;;;18.83;13.07;;;;;;;2.91;74.84;97266.22;4993512;28;20887;-59
2021/01/16 02:05:15;;;;;;;23.17;13.70;;;;;;;2.92;74.86;97257.47;4994011;28;20436;-59
2021/01/16 02:07:41;;;;;;;23.50;14.27;;;;;;;2.95;75.07;97251.94;4993881;28;20422;-59
2021/01/16 02:10:07;;;;;;;21.53;15.03;;;;;;;2.92;74.95;97259.25;4993993;28;20412;-59
2021/01/16 02:12:32;;;;;;;20.90;15.00;;;;;;;2.67;76.15;97252.31;5003215;28;20513;-59
2021/01/16 02:15:06;;;;;;;24.90;15.07;;;;;;;2.56;76.60;97261.19;5010725;28;20205;-56
2021/01/16 02:17:37;;;;;;;21.53;15.00;;;;;;;2.50;77.06;97261.78;5013412;28;20226;-56
2021/01/16 02:20:12;;;;;;;24.37;16.80;;;;;;;2.47;77.66;97256.91;4992714;28;20487;-57
2021/01/16 02:22:56;;;;;;;18.93;13.60;;;;;;;2.55;77.19;97253.56;4997091;28;20426;-56
2021/01/16 02:25:33;;;;;;;23.17;14.63;;;;;;;2.46;77.33;97255.31;5012789;28;20532;-56
2021/01/16 02:28:05;;;;;;;21.47;15.07;;;;;;;2.49;77.55;97243.78;5013547;28;20460;-59
2021/01/16 02:30:33;;;;;;;22.53;14.40;;;;;;;2.55;77.62;97248.38;5013420;28;20877;-56
2021/01/16 02:33:02;;;;;;;24.90;15.37;;;;;;;2.69;77.04;97245.19;5010861;28;20420;-59
2021/01/16 02:35:29;;;;;;;22.27;15.33;;;;;;;2.79;76.96;97244.09;5013162;28;20437;-59
2021/01/16 02:37:54;;;;;;;21.97;14.60;;;;;;;2.69;76.88;97243.41;5013304;28;20834;-59
2021/01/16 02:40:24;;;;;;;22.33;15.97;;;;;;;2.66;76.93;97248.94;5017010;28;20425;-56
2021/01/16 02:43:04;;;;;;;23.20;14.63;;;;;;;2.59;77.66;97250.50;5016669;28;20181;-59
2021/01/16 02:45:37;;;;;;;25.93;15.80;;;;;;;2.47;77.95;97245.72;5016631;28;20445;-58
2021/01/16 02:48:24;;;;;;;21.97;14.50;;;;;;;2.46;78.32;97249.28;5017000;28;20816;-56
2021/01/16 02:50:52;;;;;;;22.40;15.67;;;;;;;2.51;77.81;97255.66;5016846;28;20425;-56
2021/01/16 02:53:23;;;;;;;22.30;14.07;;;;;;;2.57;77.95;97249.84;5011633;28;20422;-56
2021/01/16 02:55:50;;;;;;;25.50;16.20;;;;;;;2.51;78.20;97247.88;5003194;28;20427;-59
2021/01/16 02:58:17;;;;;;;20.67;14.43;;;;;;;2.51;78.45;97241.84;5015972;28;20463;-59
2021/01/16 03:00:43;;;;;;;20.10;14.83;;;;;;;2.59;77.61;97242.72;5016751;28;20432;-59
2021/01/16 03:03:09;;;;;;;23.57;15.63;;;;;;;2.64;78.18;97242.25;5016078;28;20415;-59
2021/01/16 03:05:35;;;;;;;24.20;17.20;;;;;;;2.71;77.33;97244.09;5016410;28;20421;-59
2021/01/16 03:08:01;;;;;;;21.47;15.40;;;;;;;2.75;77.36;97239.41;5015483;28;20170;-59
2021/01/16 03:10:26;;;;;;;23.93;16.33;;;;;;;2.68;77.35;97246.97;5016567;28;20940;-59
2021/01/16 03:12:53;;;;;;;25.77;15.30;;;;;;;2.60;77.58;97244.34;5012256;28;20526;-56
2021/01/16 03:15:20;;;;;;;23.47;15.10;;;;;;;2.62;78.07;97247.59;5016177;28;20526;-56
2021/01/16 03:17:53;;;;;;;20.13;15.10;;;;;;;2.66;77.74;97242.91;5016187;28;20451;-59
2021/01/16 03:20:30;;;;;;;27.67;16.30;;;;;;;2.65;77.98;97246.47;5014418;28;20425;-56
2021/01/16 03:22:57;;;;;;;20.23;14.47;;;;;;;2.65;77.74;97249.06;5016016;28;20552;-59
2021/01/16 03:25:25;;;;;;;21.80;14.67;;;;;;;2.74;77.72;97250.72;5015991;28;20440;-56
2021/01/16 03:27:52;;;;;;;22.70;15.63;;;;;;;2.72;77.46;97242.28;5015929;28;20424;-56
2021/01/16 03:30:18;;;;;;;26.23;15.70;;;;;;;2.37;78.77;97248.44;5014618;28;20464;-56
2021/01/16 03:32:49;;;;;;;23.87;16.00;;;;;;;2.44;78.93;97251.22;5013546;28;20460;-59
2021/01/16 03:35:16;;;;;;;27.30;17.40;;;;;;;2.37;79.07;97245.84;5014200;28;20531;-59
2021/01/16 03:37:42;;;;;;;29.30;16.90;;;;;;;2.25;79.46;97256.63;5015967;28;20461;-60
2021/01/16 03:40:09;;;;;;;24.67;17.03;;;;;;;2.34;79.75;97253.91;5014483;28;20782;-59
2021/01/16 03:42:35;;;;;;;25.87;16.97;;;;;;;2.46;79.30;97244.94;5015660;28;20407;-57
2021/01/16 03:45:01;;;;;;;29.17;17.70;;;;;;;2.55;79.08;97235.41;5015162;28;20459;-59
2021/01/16 03:47:26;;;;;;;25.10;17.60;;;;;;;2.65;78.12;97242.09;4997126;28;20410;-57
2021/01/16 03:49:52;;;;;;;23.73;16.43;;;;;;;2.44;79.28;97240.84;5002956;28;20187;-56
2021/01/16 03:52:32;;;;;;;27.13;16.90;;;;;;;2.63;78.86;97236.25;4995964;28;20177;-59
2021/01/16 03:54:59;;;;;;;24.37;17.03;;;;;;;2.68;78.01;97235.81;4998045;28;20236;-56
2021/01/16 03:57:25;;;;;;;24.50;17.17;;;;;;;2.76;77.58;97236.63;5015255;28;20456;-59
2021/01/16 03:59:51;;;;;;;24.43;16.37;;;;;;;2.55;78.63;97241.41;5015419;28;20918;-56
2021/01/16 04:02:17;;;;;;;26.67;17.67;;;;;;;2.65;78.38;97249.88;5015148;28;20437;-59
2021/01/16 04:04:46;;;;;;;26.00;16.60;;;;;;;2.53;78.79;97242.53;5014859;28;20485;-56
2021/01/16 04:07:12;;;;;;;26.87;18.10;;;;;;;2.48;78.68;97247.38;5015360;28;20815;-59
2021/01/16 04:09:38;;;;;;;27.63;17.20;;;;;;;2.48;79.02;97239.59;5014869;28;20424;-59
2021/01/16 04:12:04;;;;;;;25.00;16.17;;;;;;;2.45;79.65;97248.47;5015496;28;20514;-56
2021/01/16 04:14:29;;;;;;;25.70;16.37;;;;;;;2.25;80.47;97251.44;5014559;28;20442;-56
2021/01/16 04:16:55;;;;;;;27.73;18.13;;;;;;;2.16;81.32;97254.94;5014941;28;20419;-59
2021/01/16 04:19:20;;;;;;;27.20;17.40;;;;;;;2.31;80.39;97258.59;5015145;28;20678;-59
2021/01/16 04:21:46;;;;;;;29.50;17.73;;;;;;;2.36;80.50;97253.75;5015116;28;20170;-56
2021/01/16 04:24:12;;;;;;;30.53;18.30;;;;;;;2.35;80.05;97254.72;4997366;28;20199;-56
2021/01/16 04:26:38;;;;;;;28.83;17.20;;;;;;;2.20;80.68;97251.88;4996486;28;20241;-56
2021/01/16 04:29:03;;;;;;;28.20;16.47;;;;;;;2.30;80.64;97256.97;4995488;28;20412;-56
2021/01/16 04:31:29;;;;;;;26.00;17.07;;;;;;;2.46;79.78;97252.72;5005868;28;20634;-56
2021/01/16 04:33:54;;;;;;;24.93;16.50;;;;;;;2.44;79.86;97261.59;5014453;28;20197;-57
2021/01/16 04:36:19;;;;;;;29.40;17.00;;;;;;;2.33;79.85;97261.84;5014639;28;20676;-59
2021/01/16 04:38:45;;;;;;;25.70;16.80;;;;;;;2.48;79.72;97255.13;5014651;28;20217;-59
2021/01/16 04:41:11;;;;;;;27.33;16.43;;;;;;;2.32;79.82;97258.44;5014099;28;20250;-56
2021/01/16 04:43:37;;;;;;;28.13;16.87;;;;;;;2.43;79.81;97254.78;5014234;28;20199;-56
2021/01/16 04:46:07;;;;;;;30.47;16.90;;;;;;;2.57;79.24;97241.25;5005819;28;20443;-56
2021/01/16 04:48:34;;;;;;;32.97;18.63;;;;;;;2.56;79.16;97242.19;4994988;28;20399;-56
2021/01/16 04:51:01;;;;;;;27.57;16.47;;;;;;;2.45;78.82;97245.88;4993644;28;20414;-59
2021/01/16 04:53:36;;;;;;;26.53;16.27;;;;;;;2.59;78.81;97241.91;4994435;28;20415;-56
2021/01/16 04:56:04;;;;;;;29.43;18.23;;;;;;;2.61;78.85;97242.56;4994908;28;20550;-59
2021/01/16 04:58:33;;;;;;;27.30;16.70;;;;;;;2.43;79.25;97237.44;4996180;28;20508;-59
2021/01/16 05:01:02;;;;;;;26.57;17.67;;;;;;;2.48;79.22;97231.81;5005103;28;20434;-59
2021/01/16 05:03:34;;;;;;;29.00;17.70;;;;;;;2.49;78.92;97233.41;4994636;28;20410;-57
2021/01/16 05:06:06;;;;;;;26.53;16.23;;;;;;;2.48;78.57;97231.81;5013964;28;20421;-56
2021/01/16 05:08:31;;;;;;;29.50;18.57;;;;;;;2.48;79.05;97232.59;5013861;28;20404;-56
2021/01/16 05:10:59;;;;;;;25.23;15.83;;;;;;;2.39;79.52;97236.09;5014455;28;20777;-56
2021/01/16 05:13:30;;;;;;;28.97;17.10;;;;;;;2.33;79.97;97230.72;5013023;28;20435;-58
2021/01/16 05:15:58;;;;;;;32.83;18.17;;;;;;;2.13;80.24;97232.72;5014550;28;20406;-59
2021/01/16 05:18:25;;;;;;;29.53;17.13;;;;;;;2.24;80.53;97239.44;5012882;28;20482;-56
2021/01/16 05:20:51;;;;;;;27.50;16.80;;;;;;;2.42;80.05;97225.44;5013549;28;20422;-59
2021/01/16 05:23:16;;;;;;;30.00;15.80;;;;;;;2.48;79.38;97227.41;5013578;28;20419;-59
2021/01/16 05:25:50;;;;;;;26.10;16.60;;;;;;;2.49;79.19;97223.03;5014175;28;20406;-56
2021/01/16 05:28:24;;;;;;;26.27;15.80;;;;;;;2.48;79.15;97229.22;5013459;28;20181;-59
2021/01/16 05:31:01;;;;;;;26.73;15.73;;;;;;;2.26;79.70;97235.72;5013469;28;20441;-59
2021/01/16 05:33:28;;;;;;;28.33;17.97;;;;;;;2.36;79.67;97231.25;5013132;28;20444;-56
2021/01/16 05:35:56;;;;;;;27.33;17.33;;;;;;;2.29;79.44;97234.59;5012250;28;20431;-59
2021/01/16 05:38:38;;;;;;;24.23;16.30;;;;;;;2.24;79.47;97240.25;5005863;28;20560;-57
2021/01/16 05:41:07;;;;;;;25.30;17.03;;;;;;;2.13;80.23;97240.50;4998801;28;20425;-59
2021/01/16 05:43:34;;;;;;;27.07;16.83;;;;;;;2.22;80.13;97238.75;5013378;28;20433;-59
2021/01/16 05:46:03;;;;;;;28.57;17.40;;;;;;;2.10;80.89;97241.59;5013281;28;20903;-59
2021/01/16 05:48:30;;;;;;;26.17;16.57;;;;;;;2.17;80.55;97252.19;5013830;28;20412;-60
2021/01/16 05:50:56;;;;;;;29.10;18.27;;;;;;;2.09;80.43;97250.34;5012378;28;20855;-59
2021/01/16 05:53:26;;;;;;;27.37;16.47;;;;;;;2.17;80.59;97243.59;5013087;28;20409;-59
2021/01/16 05:55:53;;;;;;;26.33;15.80;;;;;;;1.99;80.89;97247.00;5009004;28;20933;-56
2021/01/16 05:58:19;;;;;;;26.20;17.57;;;;;;;1.86;82.21;97238.03;5007622;28;20472;-59
2021/01/16 06:00:50;;;;;;;26.33;15.90;;;;;;;2.12;80.56;97238.06;5012307;28;20484;-59
2021/01/16 06:03:17;;;;;;;25.30;16.23;;;;;;;2.06;80.68;97234.28;5013119;28;20766;-59
2021/01/16 06:05:52;;;;;;;25.80;17.30;;;;;;;1.91;81.47;97234.03;5013197;28;20919;-59
2021/01/16 06:08:20;;;;;;;29.27;17.10;;;;;;;1.90;81.97;97229.78;5013240;28;20421;-56
2021/01/16 06:10:56;;;;;;;31.17;17.43;;;;;;;1.98;81.07;97232.44;5013364;28;20838;-56
2021/01/16 06:13:26;;;;;;;25.70;16.03;;;;;;;1.94;81.12;97225.94;5016118;28;20415;-59
2021/01/16 06:15:54;;;;;;;26.70;15.90;;;;;;;1.62;83.09;97237.81;5011383;28;20512;-59
2021/01/16 06:18:35;;;;;;;26.57;16.53;;;;;;;1.76;82.16;97230.31;4997616;28;20555;-59
2021/01/16 06:21:01;;;;;;;25.07;16.47;;;;;;;1.77;82.18;97239.75;5005979;28;20423;-56
2021/01/16 06:23:29;;;;;;;28.83;17.27;;;;;;;1.61;82.56;97231.00;5017072;28;20514;-56
2021/01/16 06:25:56;;;;;;;28.40;16.93;;;;;;;1.72;82.51;97226.41;5015485;28;20486;-59
2021/01/16 06:28:28;;;;;;;26.50;16.90;;;;;;;1.89;81.81;97228.16;5017337;28;20411;-56
2021/01/16 06:30:55;;;;;;;26.83;16.13;;;;;;;2.01;81.54;97224.38;5017099;28;20419;-59
2021/01/16 06:33:29;;;;;;;25.27;15.60;;;;;;;2.20;80.78;97225.97;5016784;28;20807;-59
2021/01/16 06:36:04;;;;;;;27.90;16.20;;;;;;;2.01;80.63;97226.94;5008494;28;20438;-56
2021/01/16 06:38:34;;;;;;;25.97;16.30;;;;;;;2.11;80.73;97219.09;4999709;28;20450;-59
2021/01/16 06:41:12;;;;;;;23.80;15.33;;;;;;;2.23;79.99;97223.06;5006443;28;20941;-56
2021/01/16 06:43:40;;;;;;;24.70;15.40;;;;;;;2.38;79.45;97220.72;4995662;28;20429;-59
2021/01/16 06:46:10;;;;;;;28.40;16.43;;;;;;;2.38;79.57;97213.75;4997306;28;20505;-59
2021/01/16 06:48:41;;;;;;;29.87;17.30;;;;;;;2.37;79.10;97216.50;4995955;28;20760;-59
2021/01/16 06:51:09;;;;;;;36.27;17.93;;;;;;;2.41;78.83;97220.44;4997443;28;20408;-59
2021/01/16 06:53:35;;;;;;;27.10;18.07;;;;;;;2.19;79.55;97223.53;5001957;28;20441;-56
2021/01/16 06:56:05;;;;;;;30.37;17.37;;;;;;;2.24;79.65;97214.31;5005332;28;20479;-59
2021/01/16 06:58:42;;;;;;;28.97;16.97;;;;;;;2.30;79.14;97216.28;5000756;28;20213;-56
2021/01/16 07:01:10;;;;;;;26.03;17.07;;;;;;;2.51;78.64;97210.75;5016129;28;20424;-56
2021/01/16 07:03:46;;;;;;;25.80;17.10;;;;;;;2.57;78.09;97207.53;5015959;28;20923;-56
2021/01/16 07:06:12;;;;;;;26.80;16.23;;;;;;;2.55;78.30;97201.69;5015217;28;20482;-59
2021/01/16 07:08:42;;;;;;;26.47;16.93;;;;;;;2.65;78.03;97202.38;5016028;28;20809;-59
2021/01/16 07:11:09;;;;;;;28.00;18.63;;;;;;;2.75;77.66;97203.06;5016193;28;20429;-59
2021/01/16 07:13:34;;;;;;;25.60;16.27;;;;;;;2.68;77.29;97208.06;5015956;28;20460;-56
2021/01/16 07:16:04;;;;;;;24.73;17.10;;;;;;;2.47;77.54;97217.19;5014579;28;20463;-56
2021/01/16 07:18:30;;;;;;;29.37;16.63;;;;;;;2.23;78.57;97217.06;5016334;28;20646;-59
2021/01/16 07:20:59;;;;;;;26.20;16.90;;;;;;;2.36;78.12;97213.09;5016200;28;20414;-56
2021/01/16 07:23:24;;;;;;;26.83;17.13;;;;;;;2.23;78.48;97214.47;5014351;28;20572;-56
2021/01/16 07:25:52;;;;;;;26.10;17.37;;;;;;;2.30;78.01;97218.09;5015841;28;20899;-56
2021/01/16 07:28:20;;;;;;;24.67;16.70;;;;;;;2.06;80.36;97213.56;5016129;28;20174;-56
2021/01/16 07:30:47;;;;;;;32.70;18.47;;;;;;;2.26;79.00;97222.75;5015300;28;20444;-56
2021/01/16 07:33:14;;;;;;;24.87;16.70;;;;;;;2.09;79.93;97227.03;5015506;28;20767;-56
2021/01/16 07:35:46;;;;;;;28.20;16.63;;;;;;;1.94;80.33;97225.94;5015448;28;20964;-59
2021/01/16 07:38:14;;;;;;;26.27;15.40;;;;;;;2.01;80.45;97226.94;5016082;28;20451;-56
2021/01/16 07:40:42;;;;;;;31.03;18.17;;;;;;;2.02;80.43;97232.97;5015507;28;20922;-56
2021/01/16 07:43:36;;;;;;;30.13;17.30;;;;;;;2.04;79.77;97231.03;5015603;28;20412;-59
2021/01/16 07:46:05;;;;;;;24.43;16.03;;;;;;;2.05;79.34;97230.88;5012730;28;20451;-59
2021/01/16 07:48:32;;;;;;;25.63;17.57;;;;;;;1.98;80.38;97239.41;5014080;28;20424;-59
2021/01/16 07:51:05;;;;;;;28.87;17.77;;;;;;;2.10;79.78;97239.00;5015572;28;20440;-56
2021/01/16 07:53:32;;;;;;;25.70;17.23;;;;;;;2.15;79.03;97235.97;5015283;28;20434;-56
2021/01/16 07:56:03;;;;;;;27.93;16.77;;;;;;;1.95;80.51;97232.75;5015737;28;20414;-56
2021/01/16 07:58:31;;;;;;;24.90;17.13;;;;;;;2.21;79.52;97227.56;5015570;28;20453;-56
2021/01/16 08:01:00;;;;;;;28.70;18.20;;;;;;;2.38;78.67;97236.25;5015146;28;20503;-59
2021/01/16 08:03:44;;;;;;;31.30;19.73;;;;;;;2.34;77.90;97240.16;4995331;28;20411;-56
2021/01/16 08:06:25;;;;;;;27.70;17.90;;;;;;;2.30;78.40;97231.06;4995970;28;20394;-56
2021/01/16 08:09:15;;;;;;;34.63;19.97;;;;;;;2.36;78.27;97233.00;4995683;28;20418;-59
2021/01/16 08:11:49;;;;;;;28.03;19.83;;;;;;;2.47;78.09;97219.78;4995967;28;20456;-56
2021/01/16 08:14:19;;;;;;;30.53;19.33;;;;;;;2.37;77.59;97229.47;5003007;28;20495;-56
2021/01/16 08:16:54;;;;;;;34.10;20.70;;;;;;;2.37;77.86;97219.91;5014822;28;20515;-56
2021/01/16 08:19:29;;;;;;;44.07;25.20;;;;;;;2.59;77.76;97215.97;5015498;28;20452;-56
2021/01/16 08:21:59;;;;;;;37.03;22.10;;;;;;;2.33;77.99;97216.00;5015340;28;20456;-56
2021/01/16 08:24:27;;;;;;;30.80;19.60;;;;;;;2.38;78.30;97218.13;5014483;28;20529;-59
2021/01/16 08:26:59;;;;;;;72.37;34.53;;;;;;;2.49;78.21;97207.47;5015109;28;20450;-59
2021/01/16 08:29:28;;;;;;;38.90;23.37;;;;;;;2.38;77.80;97208.56;5008079;28;20515;-56
2021/01/16 08:32:09;;;;;;;433.43;178.37;;;;;;;2.38;78.77;97218.13;5015114;28;20408;-56
2021/01/16 08:35:05;;;;;;;465.50;188.57;;;;;;;2.40;78.05;97208.41;5001578;28;20453;-56
2021/01/16 08:37:36;;;;;;;32.60;21.17;;;;;;;2.24;79.10;97206.56;4982974;28;20455;-56
2021/01/16 08:40:06;;;;;;;63.40;29.13;;;;;;;2.32;79.23;97203.19;4993953;28;20425;-57
2021/01/16 08:42:32;;;;;;;28.23;18.03;;;;;;;2.39;79.12;97202.41;4993564;28;20441;-59
2021/01/16 08:44:59;;;;;;;24.40;15.80;;;;;;;2.29;78.87;97199.13;5005372;28;20512;-60
2021/01/16 08:47:24;;;;;;;22.77;16.07;;;;;;;2.31;78.44;97198.97;5014751;28;20195;-59
2021/01/16 08:49:50;;;;;;;23.57;17.40;;;;;;;2.20;79.53;97196.63;4999560;28;20857;-59
2021/01/16 08:52:30;;;;;;;23.60;16.67;;;;;;;2.31;79.09;97191.19;4994798;28;20427;-57
2021/01/16 08:55:00;;;;;;;26.00;16.33;;;;;;;2.52;78.25;97196.81;4994836;28;20445;-57
2021/01/16 08:57:31;;;;;;;23.27;14.73;;;;;;;2.17;78.15;97195.16;5002567;28;20432;-56
2021/01/16 09:00:13;;;;;;;21.70;16.70;;;;;;;2.51;77.84;97200.38;5014453;28;20416;-56
2021/01/16 09:02:39;;;;;;;25.33;15.87;;;;;;;2.66;77.25;97196.22;5014153;28;20808;-59
2021/01/16 09:05:21;;;;;;;33.60;25.43;;;;;;;2.72;76.81;97201.59;5014378;28;20484;-56
2021/01/16 09:07:46;;;;;;;20.70;14.40;;;;;;;2.70;76.62;97194.97;5014363;28;20254;-56
2021/01/16 09:10:12;;;;;;;18.57;13.20;;;;;;;2.79;75.49;97200.00;5013767;28;20841;-59
2021/01/16 09:12:39;;;;;;;29.63;19.40;;;;;;;2.87;74.63;97194.84;5013316;28;20197;-57
2021/01/16 09:15:20;;;;;;;26.10;18.33;;;;;;;2.97;74.72;97202.53;5013993;28;20237;-57
2021/01/16 09:18:15;;;;;;;24.80;17.70;;;;;;;2.99;73.79;97201.38;5013208;28;20451;-59
2021/01/16 09:20:45;;;;;;;20.53;15.07;;;;;;;3.09;73.58;97212.44;5014167;28;20429;-59
2021/01/16 09:23:19;;;;;;;16.67;11.40;;;;;;;2.87;72.50;97215.63;5013209;28;20417;-59
2021/01/16 09:25:49;;;;;;;15.70;11.47;;;;;;;2.28;71.52;97220.84;5011679;28;20425;-56
2021/01/16 09:28:15;;;;;;;15.20;11.40;;;;;;;2.29;73.72;97227.63;5014360;28;20405;-59
2021/01/16 09:30:40;;;;;;;15.63;11.77;;;;;;;2.31;73.04;97225.72;5013327;28;20749;-55
2021/01/16 09:33:22;;;;;;;19.10;10.90;;;;;;;2.14;72.64;97234.34;5013198;28;20567;-60
2021/01/16 09:35:47;;;;;;;17.20;12.57;;;;;;;1.90;74.65;97234.97;5014061;28;20231;-59
2021/01/16 09:38:18;;;;;;;16.60;11.73;;;;;;;1.60;75.54;97239.72;5010569;28;20969;-56
2021/01/16 09:40:44;;;;;;;15.40;10.70;;;;;;;1.83;75.54;97233.94;4992926;28;20178;-59
2021/01/16 09:43:14;;;;;;;17.30;11.50;;;;;;;1.93;75.42;97234.69;4995761;28;20412;-55
2021/01/16 09:45:59;;;;;;;17.43;12.13;;;;;;;2.29;74.33;97232.81;5012334;28;20444;-56
2021/01/16 09:48:30;;;;;;;15.97;11.73;;;;;;;2.43;73.81;97223.69;5007882;28;20784;-59
2021/01/16 09:50:57;;;;;;;15.63;11.37;;;;;;;2.51;73.74;97218.53;4994027;28;20411;-60
2021/01/16 09:53:25;;;;;;;15.27;12.23;;;;;;;2.47;73.92;97219.78;5011727;28;20467;-59
2021/01/16 09:55:53;;;;;;;16.27;12.43;;;;;;;2.72;73.17;97222.34;5013696;28;20409;-56
2021/01/16 09:58:31;;;;;;;12.80;10.80;;;;;;;2.47;71.13;97220.63;5011065;28;20485;-57
2021/01/16 10:01:19;;;;;;;14.70;10.17;;;;;;;2.41;71.38;97210.06;5013679;28;20417;-56
2021/01/16 10:03:46;;;;;;;14.30;10.63;;;;;;;2.45;71.98;97212.16;5013130;28;21002;-59
2021/01/16 10:06:17;;;;;;;13.23;10.63;;;;;;;2.43;71.21;97210.72;5013138;28;20442;-59
2021/01/16 10:08:42;;;;;;;13.13;10.73;;;;;;;2.58;71.01;97214.34;5013452;28;20450;-56
2021/01/16 10:11:08;;;;;;;11.63;10.00;;;;;;;2.66;71.05;97202.25;5012363;28;20426;-59
2021/01/16 10:13:36;;;;;;;14.03;9.37;;;;;;;2.76;70.21;97200.31;5008232;28;20237;-55
2021/01/16 10:16:04;;;;;;;19.43;17.00;;;;;;;2.91;69.99;97190.97;5008595;28;20280;-59
2021/01/16 10:18:31;;;;;;;15.00;10.07;;;;;;;2.55;69.50;97196.50;5009780;28;20542;-57
2021/01/16 10:21:03;;;;;;;15.77;13.33;;;;;;;2.85;69.00;97183.81;5008559;28;20424;-59
2021/01/16 10:23:32;;;;;;;13.30;10.20;;;;;;;2.94;68.70;97177.69;5009627;28;20548;-56
2021/01/16 10:26:04;;;;;;;13.33;10.00;;;;;;;2.99;68.48;97175.41;5009499;28;20454;-57
2021/01/16 10:28:37;;;;;;;14.80;10.80;;;;;;;3.09;68.15;97170.09;5007775;28;20428;-58
2021/01/16 10:31:07;;;;;;;11.20;9.37;;;;;;;2.55;67.42;97166.22;5009931;28;20415;-55
2021/01/16 10:33:44;;;;;;;13.30;9.70;;;;;;;2.57;67.98;97158.25;5001031;28;20453;-57
2021/01/16 10:36:10;;;;;;;12.70;9.40;;;;;;;2.08;68.81;97158.00;5006932;28;20846;-55
2021/01/16 10:38:40;;;;;;;12.83;8.60;;;;;;;2.12;68.82;97150.75;5009670;28;20539;-62
2021/01/16 10:41:10;;;;;;;11.67;9.37;;;;;;;2.14;69.16;97148.81;5009235;28;20485;-62
2021/01/16 10:43:36;;;;;;;12.20;7.53;;;;;;;2.01;69.86;97148.44;5009306;28;20545;-64
2021/01/16 10:46:13;;;;;;;9.70;8.30;;;;;;;2.10;68.70;97140.53;5009623;28;20425;-62
2021/01/16 10:48:40;;;;;;;10.30;8.00;;;;;;;1.96;69.11;97135.94;4999427;28;20196;-62
2021/01/16 10:51:10;;;;;;;9.50;7.50;;;;;;;1.89;67.06;97132.31;4990094;28;21246;-61
2021/01/16 10:53:38;;;;;;;10.53;7.90;;;;;;;1.95;67.76;97130.91;4989660;28;20438;-59
2021/01/16 10:56:15;;;;;;;10.80;7.33;;;;;;;1.84;67.33;97126.78;4991948;28;20510;-69
2021/01/16 10:58:44;;;;;;;10.90;7.73;;;;;;;1.99;67.67;97111.50;4991811;28;20491;-59
2021/01/16 11:01:10;;;;;;;9.73;7.80;;;;;;;2.31;67.46;97114.25;4993009;28;20419;-59
2021/01/16 11:03:36;;;;;;;10.47;8.33;;;;;;;2.55;67.28;97109.16;5004522;28;21000;-56
2021/01/16 11:06:06;;;;;;;10.50;8.30;;;;;;;2.79;65.21;97111.78;5013043;28;20416;-57
2021/01/16 11:08:35;;;;;;;12.23;9.77;;;;;;;2.62;65.05;97109.31;5008971;28;20584;-59
2021/01/16 11:11:02;;;;;;;10.00;8.70;;;;;;;2.50;65.40;97110.59;5010868;28;20437;-56
2021/01/16 11:13:30;;;;;;;7.10;6.33;;;;;;;2.66;63.99;97106.28;5012217;28;20514;-56
2021/01/16 11:16:16;;;;;;;8.10;7.10;;;;;;;2.86;64.20;97104.22;5012724;28;20413;-59
2021/01/16 11:18:42;;;;;;;9.83;7.70;;;;;;;3.01;62.71;97105.19;5012822;28;20466;-59
2021/01/16 11:21:09;;;;;;;9.40;8.27;;;;;;;3.63;62.39;97101.97;5011622;28;20414;-59
2021/01/16 11:23:47;;;;;;;12.17;9.10;;;;;;;3.79;60.89;97101.94;5011762;28;20194;-57
2021/01/16 11:26:14;;;;;;;7.10;6.33;;;;;;;3.10;59.78;97094.66;4991870;28;20431;-58
2021/01/16 11:28:56;;;;;;;7.40;6.13;;;;;;;3.06;59.80;97089.97;4993031;28;20408;-56
2021/01/16 11:31:30;;;;;;;6.07;5.00;;;;;;;3.28;58.92;97088.53;4992951;28;20416;-59
2021/01/16 11:34:18;;;;;;;7.97;6.30;;;;;;;3.17;61.68;97081.84;5000274;28;20473;-56
2021/01/16 11:37:04;;;;;;;8.43;7.53;;;;;;;3.44;61.92;97072.94;5011871;28;20416;-59